Eindhoven Airport

Airport
ICAO code: 
EHEH
IATA Code: 
EIN
Summary
ICAO Region: 
EUR
Territory: 
Location: 
Eindhoven, Noord-Brabant
Serving: 
Eindhoven
Elevation: 
74 ft
Coordinates: 
Aerial View: 
51° 27' 0.5" N, 5° 22' 28.301" E
Metar
Observation
EHEH 050025Z AUTO 20011KT 9999 OVC120 04/01 Q0998 BLU
Station
Eindhoven
Date/Time
2021-12-05 00:25:00
Wind direction
200°
Wind speed
11 kts
Lowest cloud amount
overcast
Temperature
4°C
Dew point
1°C
Humidity
80%
QNH
998 hPa
Weather condition
n/a

International airport serving Eindhoven, The Netherlands.

Climatology

Temperate Marine climate/Oceanic climate (Köppen climate classification Cfb). Moderately cool summer and comparatively warm winter with a temperature range of only 14°C. Prevailing south-westerly winds from the Atlantic Ocean.

Runways

Designator Length Width Surface Rops
4/22 3000 45 ASP Yes/Yes
Airport map: 
Aerial View: 

SKYbrary Partners:

Safety knowledge contributed by: